Nathaniel B. Palmer — WBP3210 — position and weather

sailwx.info

Track history (hours):
 
Tides and Currents Weather Stations Pressure Air Temp Water Temp Dewpoint Dewpoint Depression Visibility Wind Speed Wind Dir Waves Ship Positions

Oceanographic research ship Nathaniel B. Palmer (USA)

Contact: Ethan Norris, ethan.norris.contractor@usap.gov

Detailed information on ship capabilities available from University of Delaware's Ocean Information Center and ARCUS's ALIAS (Arctic Logistics Information and Support) project.

Owner: OFFSHORE SERVICE VESSELS, GALLIANO, LA. More information available from US FCC via Universal Licensing System and Coast Guard Vessel Documentation Center.

Last reported at 2017-May-28 08:00 UTC. Time now 2017-May-28 08:32 UTC.
Position S 71°06' W 176°06'.

Type: Other ship. MMSI: 366610000.

Wind from 030 at 25 knots

Barometer 980.2 mb
Air temperature -14.2 ° C
Water temperature -1.7 ° C

Date/timePositionNaut miles runAvg speedWind from/ knotsBaromVisibWave heightAir tempDewpointWater temp
2017-May-28 08:00S 71°06' W 176°06'0 0.0 030 / 25980.2 -14.2 -1.7
2017-May-28 07:00S 71°06' W 176°06'2 1.9 030 / 27980.8 -14.2 -1.7
2017-May-28 06:00S 71°06' W 176°00'6 6.0 030 / 26981.1 -14.3 -1.7
2017-May-28 05:00S 71°00' W 176°00'0 0.0 030 / 24981.8 -14.4 -1.7
2017-May-28 04:00S 71°00' W 176°00'0 0.0 030 / 26982.4 -14.8 -1.7
2017-May-28 03:00S 71°00' W 176°00'0 0.0 020 / 25983.4 -14.8 -1.7
2017-May-28 02:00S 71°00' W 176°00'0 0.0 020 / 22984.2 -15.0 -1.7
2017-May-28 01:00S 71°00' W 176°00'0 0.0 030 / 20984.8 -15.1 -1.7
2017-May-28 00:00S 71°00' W 176°00'0 0.0 030 / 18985.3 -15.2 -1.7
2017-May-27 23:00S 71°00' W 176°00'2 2.0 030 / 15985.6 -15.2 -1.7
2017-May-27 22:00S 71°00' W 175°54'2 2.0 020 / 13986.0 -15.5 0.3
2017-May-27 21:00S 71°00' W 176°00'0 0.0 030 / 12985.9 -15.5 0.2
2017-May-27 20:00S 71°00' W 176°00'7 7.2 040 / 10986.2 -15.6 -0.1
2017-May-27 19:00S 71°06' W 176°12'2 1.9 040 / 8986.4 -15.7 -1.3
2017-May-27 18:00S 71°06' W 176°18'7 7.1 060 / 8986.4 -15.8 -1.6
2017-May-27 17:00S 71°12' W 176°30'2 1.9 050 / 7986.6 -15.8 -1.7
2017-May-27 16:00S 71°12' W 176°36'7 7.1 060 / 6986.7 -15.7 -1.7
2017-May-27 15:00S 71°18' W 176°48'4 3.8 090 / 6986.7 -15.7 -1.8
2017-May-27 14:00S 71°18' W 177°00'4 3.8 100 / 7986.7 -15.7 -1.8
2017-May-27 13:00S 71°18' W 177°12'7 7.1 110 / 7986.8 -15.5 -1.8
2017-May-27 12:00S 71°24' W 177°24'0 0.0 150 / 5986.9 -14.6 -1.8
2017-May-27 11:00S 71°24' W 177°24'0 0.0 240 / 2987.2 -14.6 -1.6
2017-May-27 10:00S 71°24' W 177°24'2 1.9 250 / 4987.3 -14.9 -1.7
2017-May-27 09:00S 71°24' W 177°30'0 0.0 250 / 4987.3 -15.0 -1.7
2017-May-27 08:00S 71°24' W 177°30'0 0.0 250 / 5987.4 -15.1 -1.7
2017-May-27 07:00S 71°24' W 177°30'0 0.0 250 / 6987.7 -15.2 -1.7
2017-May-27 06:00S 71°24' W 177°30'0 0.0 250 / 6988.0 -15.2 -1.7
2017-May-27 05:00S 71°24' W 177°30'2 1.9 240 / 7988.3 -15.4 -1.7
2017-May-27 04:00S 71°24' W 177°36'0 0.0 250 / 7988.8 -15.9 -1.7
2017-May-27 03:00S 71°24' W 177°36'0 0.0 240 / 9989.2 -15.8 -1.8
2017-May-27 02:00S 71°24' W 177°36'0 0.0 240 / 9989.7 -15.7 -1.7
2017-May-27 01:00S 71°24' W 177°36'6 6.0 240 / 10989.9 -15.1 -1.8
2017-May-27 00:00S 71°30' W 177°36'0 0.0 250 / 13990.3 -14.1 -1.7
2017-May-26 23:00S 71°30' W 177°36'2 1.9 260 / 13991.0 -14.3 -1.7
2017-May-26 22:00S 71°30' W 177°42'2 1.9 250 / 14991.5 -14.8 -1.7
2017-May-26 21:00S 71°30' W 177°48'4 3.8 250 / 13991.9 -14.2 -1.7
2017-May-26 20:00S 71°30' W 178°00'4 3.8 240 / 13992.4 -15.3 -1.7
2017-May-26 19:00S 71°30' W 178°12'7 7.1 240 / 14992.7 -15.1 -1.8
2017-May-26 18:00S 71°36' W 178°24'4 3.8 230 / 14993.4 -14.9 -1.8
2017-May-26 17:00S 71°36' W 178°36'0 0.0 230 / 14994.0 -14.8 -1.8
2017-May-26 16:00S 71°36' W 178°36'0 0.0 220 / 14994.5 -14.6 -1.7
2017-May-26 15:00S 71°36' W 178°36'0 0.0 220 / 15994.9 -14.5 -1.7
2017-May-26 14:00S 71°36' W 178°36'0 0.0 220 / 17995.2 -14.6 -1.7
2017-May-26 13:00S 71°36' W 178°36'0 0.0 220 / 17995.6 -14.8 -1.7
2017-May-26 12:00S 71°36' W 178°36'0 0.0 220 / 16995.9 -14.9 -1.7
2017-May-26 11:00S 71°36' W 178°36'0 0.0 220 / 18996.0 -14.6 -1.7
2017-May-26 10:00S 71°36' W 178°36'6 6.3 220 / 18996.2 -14.6 -1.7
2017-May-26 09:00S 71°42' W 178°42'0 0.0 220 / 19996.3 -14.9 -1.7
2017-May-26 08:00S 71°42' W 178°42'0 0.0 210 / 16996.4 -15.3 -1.7
2017-May-26 07:00S 71°42' W 178°42'0 0.0 220 / 24996.3 -15.6 3.7
2017-May-26 06:00S 71°42' W 178°42'0 0.0 230 / 22996.9 -15.7 4.7
2017-May-26 05:00S 71°42' W 178°42'2 1.9 220 / 24996.9 -14.8 -1.6
2017-May-26 04:00S 71°42' W 178°36'2 1.9 210 / 25997.1 -14.2 -1.8
2017-May-26 03:00S 71°42' W 178°42'7 7.1 210 / 23997.7 -14.7 -1.8
2017-May-26 02:00S 71°48' W 178°54'2 1.9 210 / 24997.9 -14.6 -1.8
2017-May-26 01:00S 71°48' W 179°00'6 6.3 210 / 19998.2 -15.7 -1.8
2017-May-26 00:00S 71°54' W 179°06'0 0.0 210 / 23998.5 -16.6 -1.8
2017-May-25 23:00S 71°54' W 179°06'0 0.0 210 / 21998.2 -15.8 -1.7
2017-May-25 22:00S 71°54' W 179°06'0 0.0 210 / 18998.3 -15.7 -1.7
2017-May-25 21:00S 71°54' W 179°06'0 0.0 200 / 21998.2 -15.9 -1.6
2017-May-25 20:00S 71°54' W 179°06'0 0.0 200 / 21998.1 -15.8 -1.6
2017-May-25 19:00S 71°54' W 179°06'6 6.0 200 / 18998.3 -16.1 -1.6
2017-May-25 18:00S 72°00' W 179°06'0 0.0 190 / 20998.5 -17.3 -1.6
2017-May-25 17:00S 72°00' W 179°06'0 0.0 190 / 23998.4 -18.1 -1.6
2017-May-25 16:00S 72°00' W 179°06'2 1.9 190 / 21998.2 -17.2 -1.6
2017-May-25 15:00S 72°00' W 179°00'0 0.0 190 / 20998.2 -17.4 -1.6
2017-May-25 14:00S 72°00' W 179°00'0 0.0 200 / 20998.1 -17.9 -1.6
2017-May-25 13:00S 72°00' W 179°00'0 0.0 190 / 19998.1 -17.5 -1.6
2017-May-25 12:00S 72°00' W 179°00'0 0.0 190 / 20997.8 -17.8 -1.6
2017-May-25 11:00S 72°00' W 179°00'0 0.0 200 / 16997.7 -17.3 -1.6
2017-May-25 10:00S 72°00' W 179°00'0 0.0 200 / 16997.6 -16.9 -1.6
2017-May-25 09:00S 72°00' W 179°00'0 0.0 180 / 16997.7 -16.7 -1.6
2017-May-25 08:00S 72°00' W 179°00'0 0.0 190 / 18997.5 -17.0 -1.6
2017-May-25 07:00S 72°00' W 179°00'0 0.0 190 / 18997.1 -17.0 -1.7
2017-May-25 06:00S 72°00' W 179°00'6 6.0 190 / 17997.0 -16.8 -1.7
2017-May-25 05:00S 72°06' W 179°00'0 0.0 190 / 18996.6 -17.1 -1.7
2017-May-25 04:00S 72°06' W 179°00'0 0.0 200 / 16996.2 -17.0 -1.7
2017-May-25 03:00S 72°06' W 179°00'0 0.0 200 / 15996.0 -17.0 -1.7
2017-May-25 02:00S 72°06' W 179°00'0 0.0 200 / 15995.7 -17.3 -1.7
2017-May-25 01:00S 72°06' W 179°00'0 0.0 200 / 15995.2 -16.7 -1.7
2017-May-25 00:00S 72°06' W 179°00'2 1.8 190 / 15994.6 -15.1 -1.8
2017-May-24 23:00S 72°06' W 178°54'0 0.0 200 / 17994.2 -13.3 -1.8
2017-May-24 22:00S 72°06' W 178°54'6 6.0 210 / 10993.9 -11.3 -1.8
2017-May-24 21:00S 72°12' W 178°54'0 0.0 210 / 11993.4 -11.6 -1.8
2017-May-24 20:00S 72°12' W 178°54'0 0.0 200 / 13993.1 -12.7 -1.6
2017-May-24 19:00S 72°12' W 178°54'0 0.0 190 / 16992.7 -12.8 -1.6
2017-May-24 18:00S 72°12' W 178°54'0 0.0 190 / 17992.1 -12.6 -1.6
2017-May-24 17:00S 72°12' W 178°54'0 0.0 200 / 18991.3 -12.4 -1.6
2017-May-24 16:00S 72°12' W 178°54'2 1.8 190 / 18990.8 -11.7 -1.7
2017-May-24 15:00S 72°12' W 178°48'0 0.0 190 / 17990.1 -10.6 -1.7
2017-May-24 14:00S 72°12' W 178°48'0 0.0 180 / 16989.2 -9.2 -1.6
2017-May-24 13:00S 72°12' W 178°48'0 0.0 180 / 15988.5 -8.7 -1.6
2017-May-24 12:00S 72°12' W 178°48'0 0.0 180 / 14987.8 -8.6 -1.6
2017-May-24 11:00S 72°12' W 178°48'0 0.0 180 / 12987.0 -8.6 -1.6
2017-May-24 10:00S 72°12' W 178°48'2 1.8 180 / 13986.4 -8.6 -1.6
2017-May-24 09:00S 72°12' W 178°42'0 0.0 180 / 13985.6 -8.9 -1.6
2017-May-24 08:00S 72°12' W 178°42'6 6.0 180 / 12984.6 -9.4 -1.6
2017-May-24 07:00S 72°18' W 178°42'0 0.0 200 / 11983.7 -9.9 -1.6
2017-May-24 06:00S 72°18' W 178°42'0 0.0 200 / 9983.2 -10.4 -1.6
2017-May-24 05:00S 72°18' W 178°42'2 1.8 200 / 9982.6 -10.7 -1.7
2017-May-24 04:00S 72°18' W 178°48'0 0.0 200 / 12981.8 -11.1 -1.7
2017-May-24 03:00S 72°18' W 178°48'0 0.0 200 / 11981.2 -11.2 -1.7
2017-May-24 02:00S 72°18' W 178°48'0 0.0 190 / 10980.5 -11.3 -1.7
2017-May-24 01:00S 72°18' W 178°48'0 0.0 190 / 9979.9 -11.7 -1.6
2017-May-24 00:00S 72°18' W 178°48'0 0.0 180 / 8979.4 -12.1 -1.6
2017-May-23 23:00S 72°18' W 178°48'4 3.6 150 / 5978.8 -12.4 -1.7
2017-May-23 22:00S 72°18' W 179°00'2 1.8 150 / 7978.4 -12.7 -1.7
2017-May-23 21:00S 72°18' W 179°06'2 1.8 170 / 9977.4 -13.1 -1.7
2017-May-23 20:00S 72°18' W 179°12'2 1.8 190 / 11976.6 -12.7 -1.7
2017-May-23 19:00S 72°18' W 179°06'4 3.6 230 / 13976.1 -12.5 -1.7
2017-May-23 18:00S 72°18' W 179°18'4 3.6 240 / 15975.9 -13.1 -1.7
2017-May-23 17:00S 72°18' W 179°30'2 1.8 240 / 14975.9 -13.7 -1.8
2017-May-23 16:00S 72°18' W 179°36'2 1.8 250 / 14975.4 -14.4 -1.8
2017-May-23 15:00S 72°18' W 179°30'7 7.0 240 / 22974.9 -14.8 -1.8
2017-May-23 14:00S 72°24' W 179°18'0 0.0 240 / 23974.6 -15.1 -1.7
2017-May-23 13:00S 72°24' W 179°18'4 3.6 240 / 25974.1 -15.0 -1.8
2017-May-23 12:00S 72°24' W 179°06'6 6.0 230 / 26973.2 -13.6 -1.7
2017-May-23 11:00S 72°30' W 179°06'0 0.0 230 / 22972.7 -13.2 -1.7
2017-May-23 10:00S 72°30' W 179°06'0 0.0 240 / 19972.4 -13.9 -1.7
2017-May-23 09:00S 72°30' W 179°06'5 5.4 230 / 26972.1 -13.8 -1.8
2017-May-23 08:00S 72°30' W 179°24'4 3.6 240 / 27972.0 -14.2 -1.8
2017-May-23 07:00S 72°30' W 179°36'0 0.0 240 / 22971.7 -14.6 -1.7
2017-May-23 06:00S 72°30' W 179°36'2 1.8 240 / 22971.5 -15.3 -1.7
2017-May-23 05:00S 72°30' W 179°42'0 0.0 230 / 25971.5 -15.5 -1.7
2017-May-23 04:00S 72°30' W 179°42'0 0.0 230 / 27971.2 -15.1 -1.7
2017-May-23 03:00S 72°30' W 179°42'0 0.0 230 / 27970.8 -15.3 -1.7
2017-May-23 02:00S 72°30' W 179°42'6 6.0 230 / 30970.5 -15.3 -1.7
2017-May-23 01:00S 72°36' W 179°42'0 0.0 220 / 32969.9 -15.2 -1.7
2017-May-23 00:00S 72°36' W 179°42'969968.9 220 / 32969.8 -15.3 -1.8
2017-May-22 23:00S 72°36' W 125°42'978977.9 220 / 31970.1 -15.4 -1.8
2017-May-22 22:00S 72°36' E 179°48'0 0.0 220 / 31969.7 -15.8 -1.7
2017-May-22 21:00S 72°36' E 179°48'0 0.0 210 / 33969.1 -15.6 -1.7
2017-May-22 20:00S 72°36' E 179°48'0 0.0 210 / 34968.7 -15.3 -1.6
2017-May-22 19:00S 72°36' E 179°48'0 0.0 200 / 31968.4 -15.1 -1.6
2017-May-22 18:00S 72°36' E 179°48'0 0.0 200 / 28967.9 -15.9 -1.6
2017-May-22 17:00S 72°36' E 179°48'0 0.0 190 / 31967.1 -16.5 -1.6
2017-May-22 16:00S 72°36' E 179°48'0 0.0 200 / 34966.1 -16.8 -1.6
2017-May-22 15:00S 72°36' E 179°48'6 6.0 190 / 35965.1 -16.3 -1.6
2017-May-22 14:00S 72°42' E 179°48'0 0.0 190 / 37964.1 -16.1 -1.6
2017-May-22 13:00S 72°42' E 179°48'0 0.0 190 / 38963.1 -16.1 -1.6
2017-May-22 12:00S 72°42' E 179°48'0 0.0 190 / 39962.1 -16.0 -1.6
2017-May-22 11:00S 72°42' E 179°48'2 1.8 190 / 40961.1 -16.1 -1.6
2017-May-22 10:00S 72°42' E 179°54'0 0.0 190 / 39960.3 -15.8 -1.6
2017-May-22 09:00S 72°42' E 179°54'0 0.0 190 / 38959.7 -15.5 -1.7
2017-May-22 08:00S 72°42' E 179°54'6 6.0 190 / 38959.1 -15.3 -1.6
2017-May-22 07:00S 72°48' E 179°54'0 0.0 190 / 37958.4 -14.8 -1.7
2017-May-22 06:00S 72°48' E 179°54'534534.0 190 / 37957.8 -15.2 -1.7
2017-May-22 05:00S 72°48' E 149°48'538537.6 190 / 36957.2 -15.2 -1.7
2017-May-22 04:00S 72°48' W 179°54'0 0.0 190 / 36956.7 -15.0 -1.7
2017-May-22 03:00S 72°48' W 179°54'0 0.0 190 / 36956.0 -14.4 -1.7
2017-May-22 02:00S 72°48' W 179°54'6 6.0 190 / 35955.6 -13.9 -1.7
2017-May-22 01:00S 72°54' W 179°54'0 0.0 200 / 31955.9 -14.6 -1.7
2017-May-22 00:00S 72°54' W 179°54'0 0.0 210 / 33956.6 -16.0 -1.7
2017-May-21 23:00S 72°54' W 179°54'0 0.0 210 / 31958.2 -16.9 -1.7
2017-May-21 22:00S 72°54' W 179°54'0 0.0 210 / 31959.0 -17.6 -1.7
2017-May-21 21:00S 72°54' W 179°54'0 0.0 210 / 31959.6 -18.4 -1.7
2017-May-21 20:00S 72°54' W 179°54'0 0.0 210 / 34959.9 -18.9 -1.7
2017-May-21 19:00S 72°54' W 179°54'0 0.0 210 / 36960.5 -18.9 -1.7
2017-May-21 18:00S 72°54' W 179°54'44934493.1 210 / 36960.9 -18.7 -1.7
2017-May-21 17:00S 73°00' E 075°30'18261826.2 210 / 34961.9 -18.4 -1.7
2017-May-21 16:00S 73°00' E 179°36'7 6.9 210 / 35962.7 -18.6 -1.7
2017-May-21 15:00S 73°06' E 179°24'3 3.5 200 / 35963.4 -18.5 -1.7
2017-May-21 14:00S 73°06' E 179°12'7 6.9 200 / 33964.3 -17.8 -1.7
2017-May-21 13:00S 73°12' E 179°00'3 3.5 210 / 35965.1 -17.6 -1.8
2017-May-21 12:00S 73°12' E 178°48'6 6.0 210 / 35965.8 -17.9 -1.7
2017-May-21 11:00S 73°18' E 178°48'0 0.0 210 / 35966.3 -17.7 -1.7
2017-May-21 10:00S 73°18' E 178°48'0 0.0 210 / 33966.9 -17.2 -1.7
2017-May-21 09:00S 73°18' E 178°48'0 0.0 210 / 32967.4 -17.0 -1.7
2017-May-21 08:00S 73°18' E 178°48'0 0.0 210 / 31967.9 -16.9 -1.7
2017-May-21 07:00S 73°18' E 178°48'0 0.0 210 / 21968.4 -17.1 -1.7
2017-May-21 06:00S 73°18' E 178°48'6 6.0 220 / 20968.6 -17.1 -1.7
2017-May-21 05:00S 73°24' E 178°48'0 0.0 210 / 21968.9 -16.4 -1.7
2017-May-21 04:00S 73°24' E 178°48'0 0.0 220 / 19969.3 -16.0 -1.7
2017-May-21 03:00S 73°24' E 178°48'2 1.7 220 / 21969.6 -16.6 -1.7
2017-May-21 02:00S 73°24' E 178°54'8 7.9 220 / 28969.4 -16.7 -1.7
2017-May-21 01:00S 73°30' E 179°12'7 6.9 220 / 28969.3 -17.0 -1.7
2017-May-21 00:00S 73°36' E 179°24'5 5.1 220 / 25969.8 -17.3 -1.7
2017-May-20 23:00S 73°36' E 179°42'28482847.7 230 / 24970.1 -18.3 -1.6
2017-May-20 22:00S 73°42' E 011°06'32133213.1 220 / 21970.7 -19.2 -1.8
2017-May-20 21:00S 73°42' W 179°42'0 0.0 210 / 21970.7 -19.6 -1.7
2017-May-20 20:00S 73°42' W 179°42'6 6.0 220 / 23971.0 -19.4 -1.6
2017-May-20 19:00S 73°48' W 179°42'3 3.3 220 / 27971.1 -18.9 -1.7
2017-May-20 18:00S 73°48' W 179°30'6 6.2 250 / 23971.4 -16.2 -1.8
2017-May-20 17:00S 73°54' W 179°24'8 7.8 250 / 18972.2 -16.9 -1.7
2017-May-20 16:00S 74°00' W 179°06'2 1.7 230 / 14973.0 -17.6 -1.8
2017-May-20 15:00S 74°00' W 179°00'0 0.0 220 / 10974.2 -17.9 -1.7
2017-May-20 14:00S 74°00' W 179°00'0 0.0 210 / 8975.0 -18.0 -1.6
2017-May-20 13:00S 74°00' W 179°00'3 3.3 200 / 8975.8 -18.1 -1.8
2017-May-20 12:00S 74°00' W 179°12'3 3.3 200 / 11976.5 -17.9 -1.8
2017-May-20 11:00S 74°00' W 179°24'0 0.0 220 / 10977.1 -16.9 -1.7
2017-May-20 10:00S 74°00' W 179°24'0 0.0 230 / 9978.0 -16.8 -1.7
2017-May-20 09:00S 74°00' W 179°24'0 0.0 240 / 11978.9 -16.8 -1.7
2017-May-20 08:00S 74°00' W 179°24'0 0.0 240 / 13979.5 -16.9 -1.7
2017-May-20 07:00S 74°00' W 179°24'0 0.0 230 / 14980.4 -16.3 -1.6
2017-May-20 06:00S 74°00' W 179°24'0 0.0 240 / 13981.2 -16.9 -1.7
2017-May-20 05:00S 74°00' W 179°24'5 5.0 250 / 10981.9 -17.0 -1.7
2017-May-20 04:00S 74°00' W 179°42'2 1.7 250 / 10982.7 -17.1 -1.7
2017-May-20 03:00S 74°00' W 179°48'0 0.0 250 / 7983.7 -17.4 -1.7
2017-May-20 02:00S 74°00' W 179°48'0 0.0 250 / 6984.2 -17.5 -1.7
2017-May-20 01:00S 74°00' W 179°48'8 7.8 260 / 8984.8 -17.3 -1.8
2017-May-20 00:00S 74°06' W 179°30'2 1.6 260 / 9985.4 -16.8 -1.8
2017-May-19 23:00S 74°06' W 179°24'0 0.0 280 / 7985.6 -16.5 -1.7
2017-May-19 22:00S 74°06' W 179°24'6 6.0 240 / 4986.1 -16.3 -1.7
2017-May-19 21:00S 74°12' W 179°24'2 1.6 240 / 7987.0 -16.5 -1.6
2017-May-19 20:00S 74°12' W 179°18'6 6.2 240 / 8987.6 -16.7 -1.7
2017-May-19 19:00S 74°18' W 179°12'6 6.2 250 / 11988.3 -16.8 -1.7
2017-May-19 18:00S 74°24' W 179°06'5 4.8 270 / 10988.8 -17.0 -1.7
2017-May-19 17:00S 74°24' W 178°48'6 6.2 260 / 8989.1 -16.9 -1.8
2017-May-19 16:00S 74°30' W 178°42'8 7.7 220 / 6989.2 -16.2 -1.8
2017-May-19 15:00S 74°36' W 179°00'8 7.7 220 / 8989.9 -16.0 -1.8
2017-May-19 14:00S 74°42' W 179°18'7 6.8 200 / 10990.5 -15.8 -1.8
2017-May-19 13:00S 74°48' W 179°30'384383.8 190 / 14990.9 -15.4 -1.8
2017-May-19 12:00S 74°48' W 155°06'395395.2 190 / 16991.7 -16.0 -1.7
2017-May-19 11:00S 74°54' E 179°42'6 6.3 200 / 15992.3 -17.5 -1.7
2017-May-19 10:00S 74°54' E 179°18'6 6.3 210 / 14992.5 -17.6 -1.6
2017-May-19 09:00S 74°54' E 178°54'6 6.3 220 / 16992.5 -16.7 -1.6
2017-May-19 08:00S 74°54' E 178°30'5 4.7 230 / 17992.8 -16.4 -1.7
2017-May-19 07:00S 74°54' E 178°12'6 6.3 240 / 14993.2 -16.9 -1.7
2017-May-19 06:00S 74°54' E 177°48'6 6.3 230 / 11993.6 -16.8 -1.7
2017-May-19 05:00S 74°54' E 177°24'6 6.3 220 / 14993.9 -16.2 -1.7
2017-May-19 04:00S 74°54' E 177°00'8 7.8 210 / 17994.0 -15.4 -1.8
2017-May-19 03:00S 74°54' E 176°30'6 6.3 220 / 21994.2 -14.7 -1.8
2017-May-19 02:00S 74°54' E 176°06'2 1.6 220 / 16994.9 -13.6 -1.8
2017-May-19 01:00S 74°54' E 176°00'2 1.6 190 / 17995.3 -12.9 -1.7
2017-May-19 00:00S 74°54' E 175°54'0 0.0 210 / 14995.6 -12.4 -1.7
2017-May-18 23:00S 74°54' E 175°54'0 0.0 210 / 15995.8 -12.4 -1.7
2017-May-18 22:00S 74°54' E 175°54'6 6.0 220 / 18996.2 -12.7 -1.7
2017-May-18 21:00S 75°00' E 175°54'6 6.0 220 / 16996.3 -13.4 -1.8
2017-May-18 20:00S 75°06' E 175°54'6 6.0 210 / 19996.0 -12.4 -1.8
2017-May-18 19:00S 75°12' E 175°54'6 6.0 190 / 21995.5 -12.3 -1.6
2017-May-18 18:00S 75°18' E 175°54'6 6.0 200 / 23995.1 -12.4 -1.7
2017-May-18 17:00S 75°24' E 175°54'6 6.0 210 / 23994.9 -11.8 -1.7
2017-May-18 16:00S 75°30' E 175°54'6 6.0 200 / 21994.7 -12.0 -1.7
2017-May-18 15:00S 75°36' E 175°54'6 6.2 190 / 20994.3 -12.2 -1.8
2017-May-18 14:00S 75°42' E 175°48'1212.1 190 / 23994.0 -12.8 -1.8
2017-May-18 13:00S 75°54' E 175°54'6 6.2 190 / 23993.5 -12.9 -1.8
2017-May-18 12:00S 76°00' E 176°00'6 6.0 200 / 22992.8 -12.8 -1.8
2017-May-18 11:00S 76°06' E 176°00'6 6.0 200 / 26992.2 -12.9 -1.8
2017-May-18 10:00S 76°12' E 176°00'6 6.0 190 / 29991.8 -13.0 -1.8
2017-May-18 09:00S 76°18' E 176°00'7 6.6 200 / 30991.5 -12.8 -1.8
2017-May-18 08:00S 76°24' E 175°48'   200 / 30991.2 -13.1 -1.8
Track history (hours):
 
Tides and Currents Weather Stations Pressure Air Temp Water Temp Dewpoint Dewpoint Depression Visibility Wind Speed Wind Dir Waves Ship Positions

Oceanographic research ship Nathaniel B. Palmer (USA)

Contact: Ethan Norris, ethan.norris.contractor@usap.gov

Detailed information on ship capabilities available from University of Delaware's Ocean Information Center and ARCUS's ALIAS (Arctic Logistics Information and Support) project.

Owner: OFFSHORE SERVICE VESSELS, GALLIANO, LA. More information available from US FCC via Universal Licensing System and Coast Guard Vessel Documentation Center.

Last reported at 2017-May-28 08:00 UTC. Time now 2017-May-28 08:32 UTC.
Position S 71°06' W 176°06'.

Type: Other ship. MMSI: 366610000.

Wind from 030 at 25 knots

Barometer 980.2 mb
Air temperature -14.2 ° C
Water temperature -1.7 ° C

Date/timePositionNaut miles runAvg speedWind from/ knotsBaromVisibWave heightAir tempDewpointWater temp
2017-May-28 08:00S 71°06' W 176°06'0 0.0 030 / 25980.2 -14.2 -1.7
2017-May-28 07:00S 71°06' W 176°06'2 1.9 030 / 27980.8 -14.2 -1.7
2017-May-28 06:00S 71°06' W 176°00'6 6.0 030 / 26981.1 -14.3 -1.7
2017-May-28 05:00S 71°00' W 176°00'0 0.0 030 / 24981.8 -14.4 -1.7
2017-May-28 04:00S 71°00' W 176°00'0 0.0 030 / 26982.4 -14.8 -1.7
2017-May-28 03:00S 71°00' W 176°00'0 0.0 020 / 25983.4 -14.8 -1.7
2017-May-28 02:00S 71°00' W 176°00'0 0.0 020 / 22984.2 -15.0 -1.7
2017-May-28 01:00S 71°00' W 176°00'0 0.0 030 / 20984.8 -15.1 -1.7
2017-May-28 00:00S 71°00' W 176°00'0 0.0 030 / 18985.3 -15.2 -1.7
2017-May-27 23:00S 71°00' W 176°00'2 2.0 030 / 15985.6 -15.2 -1.7
2017-May-27 22:00S 71°00' W 175°54'2 2.0 020 / 13986.0 -15.5 0.3
2017-May-27 21:00S 71°00' W 176°00'0 0.0 030 / 12985.9 -15.5 0.2
2017-May-27 20:00S 71°00' W 176°00'7 7.2 040 / 10986.2 -15.6 -0.1
2017-May-27 19:00S 71°06' W 176°12'2 1.9 040 / 8986.4 -15.7 -1.3
2017-May-27 18:00S 71°06' W 176°18'7 7.1 060 / 8986.4 -15.8 -1.6
2017-May-27 17:00S 71°12' W 176°30'2 1.9 050 / 7986.6 -15.8 -1.7
2017-May-27 16:00S 71°12' W 176°36'7 7.1 060 / 6986.7 -15.7 -1.7
2017-May-27 15:00S 71°18' W 176°48'4 3.8 090 / 6986.7 -15.7 -1.8
2017-May-27 14:00S 71°18' W 177°00'4 3.8 100 / 7986.7 -15.7 -1.8
2017-May-27 13:00S 71°18' W 177°12'7 7.1 110 / 7986.8 -15.5 -1.8
2017-May-27 12:00S 71°24' W 177°24'0 0.0 150 / 5986.9 -14.6 -1.8
2017-May-27 11:00S 71°24' W 177°24'0 0.0 240 / 2987.2 -14.6 -1.6
2017-May-27 10:00S 71°24' W 177°24'2 1.9 250 / 4987.3 -14.9 -1.7
2017-May-27 09:00S 71°24' W 177°30'0 0.0 250 / 4987.3 -15.0 -1.7
2017-May-27 08:00S 71°24' W 177°30'0 0.0 250 / 5987.4 -15.1 -1.7
2017-May-27 07:00S 71°24' W 177°30'0 0.0 250 / 6987.7 -15.2 -1.7
2017-May-27 06:00S 71°24' W 177°30'0 0.0 250 / 6988.0 -15.2 -1.7
2017-May-27 05:00S 71°24' W 177°30'2 1.9 240 / 7988.3 -15.4 -1.7
2017-May-27 04:00S 71°24' W 177°36'0 0.0 250 / 7988.8 -15.9 -1.7
2017-May-27 03:00S 71°24' W 177°36'0 0.0 240 / 9989.2 -15.8 -1.8
2017-May-27 02:00S 71°24' W 177°36'0 0.0 240 / 9989.7 -15.7 -1.7
2017-May-27 01:00S 71°24' W 177°36'6 6.0 240 / 10989.9 -15.1 -1.8
2017-May-27 00:00S 71°30' W 177°36'0 0.0 250 / 13990.3 -14.1 -1.7
2017-May-26 23:00S 71°30' W 177°36'2 1.9 260 / 13991.0 -14.3 -1.7
2017-May-26 22:00S 71°30' W 177°42'2 1.9 250 / 14991.5 -14.8 -1.7
2017-May-26 21:00S 71°30' W 177°48'4 3.8 250 / 13991.9 -14.2 -1.7
2017-May-26 20:00S 71°30' W 178°00'4 3.8 240 / 13992.4 -15.3 -1.7
2017-May-26 19:00S 71°30' W 178°12'7 7.1 240 / 14992.7 -15.1 -1.8
2017-May-26 18:00S 71°36' W 178°24'4 3.8 230 / 14993.4 -14.9 -1.8
2017-May-26 17:00S 71°36' W 178°36'0 0.0 230 / 14994.0 -14.8 -1.8
2017-May-26 16:00S 71°36' W 178°36'0 0.0 220 / 14994.5 -14.6 -1.7
2017-May-26 15:00S 71°36' W 178°36'0 0.0 220 / 15994.9 -14.5 -1.7
2017-May-26 14:00S 71°36' W 178°36'0 0.0 220 / 17995.2 -14.6 -1.7
2017-May-26 13:00S 71°36' W 178°36'0 0.0 220 / 17995.6 -14.8 -1.7
2017-May-26 12:00S 71°36' W 178°36'0 0.0 220 / 16995.9 -14.9 -1.7
2017-May-26 11:00S 71°36' W 178°36'0 0.0 220 / 18996.0 -14.6 -1.7
2017-May-26 10:00S 71°36' W 178°36'6 6.3 220 / 18996.2 -14.6 -1.7
2017-May-26 09:00S 71°42' W 178°42'0 0.0 220 / 19996.3 -14.9 -1.7
2017-May-26 08:00S 71°42' W 178°42'0 0.0 210 / 16996.4 -15.3 -1.7
2017-May-26 07:00S 71°42' W 178°42'0 0.0 220 / 24996.3 -15.6 3.7
2017-May-26 06:00S 71°42' W 178°42'0 0.0 230 / 22996.9 -15.7 4.7
2017-May-26 05:00S 71°42' W 178°42'2 1.9 220 / 24996.9 -14.8 -1.6
2017-May-26 04:00S 71°42' W 178°36'2 1.9 210 / 25997.1 -14.2 -1.8
2017-May-26 03:00S 71°42' W 178°42'7 7.1 210 / 23997.7 -14.7 -1.8
2017-May-26 02:00S 71°48' W 178°54'2 1.9 210 / 24997.9 -14.6 -1.8
2017-May-26 01:00S 71°48' W 179°00'6 6.3 210 / 19998.2 -15.7 -1.8
2017-May-26 00:00S 71°54' W 179°06'0 0.0 210 / 23998.5 -16.6 -1.8
2017-May-25 23:00S 71°54' W 179°06'0 0.0 210 / 21998.2 -15.8 -1.7
2017-May-25 22:00S 71°54' W 179°06'0 0.0 210 / 18998.3 -15.7 -1.7
2017-May-25 21:00S 71°54' W 179°06'0 0.0 200 / 21998.2 -15.9 -1.6
2017-May-25 20:00S 71°54' W 179°06'0 0.0 200 / 21998.1 -15.8 -1.6
2017-May-25 19:00S 71°54' W 179°06'6 6.0 200 / 18998.3 -16.1 -1.6
2017-May-25 18:00S 72°00' W 179°06'0 0.0 190 / 20998.5 -17.3 -1.6
2017-May-25 17:00S 72°00' W 179°06'0 0.0 190 / 23998.4 -18.1 -1.6
2017-May-25 16:00S 72°00' W 179°06'2 1.9 190 / 21998.2 -17.2 -1.6
2017-May-25 15:00S 72°00' W 179°00'0 0.0 190 / 20998.2 -17.4 -1.6
2017-May-25 14:00S 72°00' W 179°00'0 0.0 200 / 20998.1 -17.9 -1.6
2017-May-25 13:00S 72°00' W 179°00'0 0.0 190 / 19998.1 -17.5 -1.6
2017-May-25 12:00S 72°00' W 179°00'0 0.0 190 / 20997.8 -17.8 -1.6
2017-May-25 11:00S 72°00' W 179°00'0 0.0 200 / 16997.7 -17.3 -1.6
2017-May-25 10:00S 72°00' W 179°00'0 0.0 200 / 16997.6 -16.9 -1.6
2017-May-25 09:00S 72°00' W 179°00'0 0.0 180 / 16997.7 -16.7 -1.6
2017-May-25 08:00S 72°00' W 179°00'0 0.0 190 / 18997.5 -17.0 -1.6
2017-May-25 07:00S 72°00' W 179°00'0 0.0 190 / 18997.1 -17.0 -1.7
2017-May-25 06:00S 72°00' W 179°00'6 6.0 190 / 17997.0 -16.8 -1.7
2017-May-25 05:00S 72°06' W 179°00'0 0.0 190 / 18996.6 -17.1 -1.7
2017-May-25 04:00S 72°06' W 179°00'0 0.0 200 / 16996.2 -17.0 -1.7
2017-May-25 03:00S 72°06' W 179°00'0 0.0 200 / 15996.0 -17.0 -1.7
2017-May-25 02:00S 72°06' W 179°00'0 0.0 200 / 15995.7 -17.3 -1.7
2017-May-25 01:00S 72°06' W 179°00'0 0.0 200 / 15995.2 -16.7 -1.7
2017-May-25 00:00S 72°06' W 179°00'2 1.8 190 / 15994.6 -15.1 -1.8
2017-May-24 23:00S 72°06' W 178°54'0 0.0 200 / 17994.2 -13.3 -1.8
2017-May-24 22:00S 72°06' W 178°54'6 6.0 210 / 10993.9 -11.3 -1.8
2017-May-24 21:00S 72°12' W 178°54'0 0.0 210 / 11993.4 -11.6 -1.8
2017-May-24 20:00S 72°12' W 178°54'0 0.0 200 / 13993.1 -12.7 -1.6
2017-May-24 19:00S 72°12' W 178°54'0 0.0 190 / 16992.7 -12.8 -1.6
2017-May-24 18:00S 72°12' W 178°54'0 0.0 190 / 17992.1 -12.6 -1.6
2017-May-24 17:00S 72°12' W 178°54'0 0.0 200 / 18991.3 -12.4 -1.6
2017-May-24 16:00S 72°12' W 178°54'2 1.8 190 / 18990.8 -11.7 -1.7
2017-May-24 15:00S 72°12' W 178°48'0 0.0 190 / 17990.1 -10.6 -1.7
2017-May-24 14:00S 72°12' W 178°48'0 0.0 180 / 16989.2 -9.2 -1.6
2017-May-24 13:00S 72°12' W 178°48'0 0.0 180 / 15988.5 -8.7 -1.6
2017-May-24 12:00S 72°12' W 178°48'0 0.0 180 / 14987.8 -8.6 -1.6
2017-May-24 11:00S 72°12' W 178°48'0 0.0 180 / 12987.0 -8.6 -1.6
2017-May-24 10:00S 72°12' W 178°48'2 1.8 180 / 13986.4 -8.6 -1.6
2017-May-24 09:00S 72°12' W 178°42'0 0.0 180 / 13985.6 -8.9 -1.6
2017-May-24 08:00S 72°12' W 178°42'6 6.0 180 / 12984.6 -9.4 -1.6
2017-May-24 07:00S 72°18' W 178°42'0 0.0 200 / 11983.7 -9.9 -1.6
2017-May-24 06:00S 72°18' W 178°42'0 0.0 200 / 9983.2 -10.4 -1.6
2017-May-24 05:00S 72°18' W 178°42'2 1.8 200 / 9982.6 -10.7 -1.7
2017-May-24 04:00S 72°18' W 178°48'0 0.0 200 / 12981.8 -11.1 -1.7
2017-May-24 03:00S 72°18' W 178°48'0 0.0 200 / 11981.2 -11.2 -1.7
2017-May-24 02:00S 72°18' W 178°48'0 0.0 190 / 10980.5 -11.3 -1.7
2017-May-24 01:00S 72°18' W 178°48'0 0.0 190 / 9979.9 -11.7 -1.6
2017-May-24 00:00S 72°18' W 178°48'0 0.0 180 / 8979.4 -12.1 -1.6
2017-May-23 23:00S 72°18' W 178°48'4 3.6 150 / 5978.8 -12.4 -1.7
2017-May-23 22:00S 72°18' W 179°00'2 1.8 150 / 7978.4 -12.7 -1.7
2017-May-23 21:00S 72°18' W 179°06'2 1.8 170 / 9977.4 -13.1 -1.7
2017-May-23 20:00S 72°18' W 179°12'2 1.8 190 / 11976.6 -12.7 -1.7
2017-May-23 19:00S 72°18' W 179°06'4 3.6 230 / 13976.1 -12.5 -1.7
2017-May-23 18:00S 72°18' W 179°18'4 3.6 240 / 15975.9 -13.1 -1.7
2017-May-23 17:00S 72°18' W 179°30'2 1.8 240 / 14975.9 -13.7 -1.8
2017-May-23 16:00S 72°18' W 179°36'2 1.8 250 / 14975.4 -14.4 -1.8
2017-May-23 15:00S 72°18' W 179°30'7 7.0 240 / 22974.9 -14.8 -1.8
2017-May-23 14:00S 72°24' W 179°18'0 0.0 240 / 23974.6 -15.1 -1.7
2017-May-23 13:00S 72°24' W 179°18'4 3.6 240 / 25974.1 -15.0 -1.8
2017-May-23 12:00S 72°24' W 179°06'6 6.0 230 / 26973.2 -13.6 -1.7
2017-May-23 11:00S 72°30' W 179°06'0 0.0 230 / 22972.7 -13.2 -1.7
2017-May-23 10:00S 72°30' W 179°06'0 0.0 240 / 19972.4 -13.9 -1.7
2017-May-23 09:00S 72°30' W 179°06'5 5.4 230 / 26972.1 -13.8 -1.8
2017-May-23 08:00S 72°30' W 179°24'4 3.6 240 / 27972.0 -14.2 -1.8
2017-May-23 07:00S 72°30' W 179°36'0 0.0 240 / 22971.7 -14.6 -1.7
2017-May-23 06:00S 72°30' W 179°36'2 1.8 240 / 22971.5 -15.3 -1.7
2017-May-23 05:00S 72°30' W 179°42'0 0.0 230 / 25971.5 -15.5 -1.7
2017-May-23 04:00S 72°30' W 179°42'0 0.0 230 / 27971.2 -15.1 -1.7
2017-May-23 03:00S 72°30' W 179°42'0 0.0 230 / 27970.8 -15.3 -1.7
2017-May-23 02:00S 72°30' W 179°42'6 6.0 230 / 30970.5 -15.3 -1.7
2017-May-23 01:00S 72°36' W 179°42'0 0.0 220 / 32969.9 -15.2 -1.7
2017-May-23 00:00S 72°36' W 179°42'969968.9 220 / 32969.8 -15.3 -1.8
2017-May-22 23:00S 72°36' W 125°42'978977.9 220 / 31970.1 -15.4 -1.8
2017-May-22 22:00S 72°36' E 179°48'0 0.0 220 / 31969.7 -15.8 -1.7
2017-May-22 21:00S 72°36' E 179°48'0 0.0 210 / 33969.1 -15.6 -1.7
2017-May-22 20:00S 72°36' E 179°48'0 0.0 210 / 34968.7 -15.3 -1.6
2017-May-22 19:00S 72°36' E 179°48'0 0.0 200 / 31968.4 -15.1 -1.6
2017-May-22 18:00S 72°36' E 179°48'0 0.0 200 / 28967.9 -15.9 -1.6
2017-May-22 17:00S 72°36' E 179°48'0 0.0 190 / 31967.1 -16.5 -1.6
2017-May-22 16:00S 72°36' E 179°48'0 0.0 200 / 34966.1 -16.8 -1.6
2017-May-22 15:00S 72°36' E 179°48'6 6.0 190 / 35965.1 -16.3 -1.6
2017-May-22 14:00S 72°42' E 179°48'0 0.0 190 / 37964.1 -16.1 -1.6
2017-May-22 13:00S 72°42' E 179°48'0 0.0 190 / 38963.1 -16.1 -1.6
2017-May-22 12:00S 72°42' E 179°48'0 0.0 190 / 39962.1 -16.0 -1.6
2017-May-22 11:00S 72°42' E 179°48'2 1.8 190 / 40961.1 -16.1 -1.6
2017-May-22 10:00S 72°42' E 179°54'0 0.0 190 / 39960.3 -15.8 -1.6
2017-May-22 09:00S 72°42' E 179°54'0 0.0 190 / 38959.7 -15.5 -1.7
2017-May-22 08:00S 72°42' E 179°54'6 6.0 190 / 38959.1 -15.3 -1.6
2017-May-22 07:00S 72°48' E 179°54'0 0.0 190 / 37958.4 -14.8 -1.7
2017-May-22 06:00S 72°48' E 179°54'534534.0 190 / 37957.8 -15.2 -1.7
2017-May-22 05:00S 72°48' E 149°48'538537.6 190 / 36957.2 -15.2 -1.7
2017-May-22 04:00S 72°48' W 179°54'0 0.0 190 / 36956.7 -15.0 -1.7
2017-May-22 03:00S 72°48' W 179°54'0 0.0 190 / 36956.0 -14.4 -1.7
2017-May-22 02:00S 72°48' W 179°54'6 6.0 190 / 35955.6 -13.9 -1.7
2017-May-22 01:00S 72°54' W 179°54'0 0.0 200 / 31955.9 -14.6 -1.7
2017-May-22 00:00S 72°54' W 179°54'0 0.0 210 / 33956.6 -16.0 -1.7
2017-May-21 23:00S 72°54' W 179°54'0 0.0 210 / 31958.2 -16.9 -1.7
2017-May-21 22:00S 72°54' W 179°54'0 0.0 210 / 31959.0 -17.6 -1.7
2017-May-21 21:00S 72°54' W 179°54'0 0.0 210 / 31959.6 -18.4 -1.7
2017-May-21 20:00S 72°54' W 179°54'0 0.0 210 / 34959.9 -18.9 -1.7
2017-May-21 19:00S 72°54' W 179°54'0 0.0 210 / 36960.5 -18.9 -1.7
2017-May-21 18:00S 72°54' W 179°54'44934493.1 210 / 36960.9 -18.7 -1.7
2017-May-21 17:00S 73°00' E 075°30'18261826.2 210 / 34961.9 -18.4 -1.7
2017-May-21 16:00S 73°00' E 179°36'7 6.9 210 / 35962.7 -18.6 -1.7
2017-May-21 15:00S 73°06' E 179°24'3 3.5 200 / 35963.4 -18.5 -1.7
2017-May-21 14:00S 73°06' E 179°12'7 6.9 200 / 33964.3 -17.8 -1.7
2017-May-21 13:00S 73°12' E 179°00'3 3.5 210 / 35965.1 -17.6 -1.8
2017-May-21 12:00S 73°12' E 178°48'6 6.0 210 / 35965.8 -17.9 -1.7
2017-May-21 11:00S 73°18' E 178°48'0 0.0 210 / 35966.3 -17.7 -1.7
2017-May-21 10:00S 73°18' E 178°48'0 0.0 210 / 33966.9 -17.2 -1.7
2017-May-21 09:00S 73°18' E 178°48'0 0.0 210 / 32967.4 -17.0 -1.7
2017-May-21 08:00S 73°18' E 178°48'0 0.0 210 / 31967.9 -16.9 -1.7
2017-May-21 07:00S 73°18' E 178°48'0 0.0 210 / 21968.4 -17.1 -1.7
2017-May-21 06:00S 73°18' E 178°48'6 6.0 220 / 20968.6 -17.1 -1.7
2017-May-21 05:00S 73°24' E 178°48'0 0.0 210 / 21968.9 -16.4 -1.7
2017-May-21 04:00S 73°24' E 178°48'0 0.0 220 / 19969.3 -16.0 -1.7
2017-May-21 03:00S 73°24' E 178°48'2 1.7 220 / 21969.6 -16.6 -1.7
2017-May-21 02:00S 73°24' E 178°54'8 7.9 220 / 28969.4 -16.7 -1.7
2017-May-21 01:00S 73°30' E 179°12'7 6.9 220 / 28969.3 -17.0 -1.7
2017-May-21 00:00S 73°36' E 179°24'5 5.1 220 / 25969.8 -17.3 -1.7
2017-May-20 23:00S 73°36' E 179°42'28482847.7 230 / 24970.1 -18.3 -1.6
2017-May-20 22:00S 73°42' E 011°06'32133213.1 220 / 21970.7 -19.2 -1.8
2017-May-20 21:00S 73°42' W 179°42'0 0.0 210 / 21970.7 -19.6 -1.7
2017-May-20 20:00S 73°42' W 179°42'6 6.0 220 / 23971.0 -19.4 -1.6
2017-May-20 19:00S 73°48' W 179°42'3 3.3 220 / 27971.1 -18.9 -1.7
2017-May-20 18:00S 73°48' W 179°30'6 6.2 250 / 23971.4 -16.2 -1.8
2017-May-20 17:00S 73°54' W 179°24'8 7.8 250 / 18972.2 -16.9 -1.7
2017-May-20 16:00S 74°00' W 179°06'2 1.7 230 / 14973.0 -17.6 -1.8
2017-May-20 15:00S 74°00' W 179°00'0 0.0 220 / 10974.2 -17.9 -1.7
2017-May-20 14:00S 74°00' W 179°00'0 0.0 210 / 8975.0 -18.0 -1.6
2017-May-20 13:00S 74°00' W 179°00'3 3.3 200 / 8975.8 -18.1 -1.8
2017-May-20 12:00S 74°00' W 179°12'3 3.3 200 / 11976.5 -17.9 -1.8
2017-May-20 11:00S 74°00' W 179°24'0 0.0 220 / 10977.1 -16.9 -1.7
2017-May-20 10:00S 74°00' W 179°24'0 0.0 230 / 9978.0 -16.8 -1.7
2017-May-20 09:00S 74°00' W 179°24'0 0.0 240 / 11978.9 -16.8 -1.7
2017-May-20 08:00S 74°00' W 179°24'0 0.0 240 / 13979.5 -16.9 -1.7
2017-May-20 07:00S 74°00' W 179°24'0 0.0 230 / 14980.4 -16.3 -1.6
2017-May-20 06:00S 74°00' W 179°24'0 0.0 240 / 13981.2 -16.9 -1.7
2017-May-20 05:00S 74°00' W 179°24'5 5.0 250 / 10981.9 -17.0 -1.7
2017-May-20 04:00S 74°00' W 179°42'2 1.7 250 / 10982.7 -17.1 -1.7
2017-May-20 03:00S 74°00' W 179°48'0 0.0 250 / 7983.7 -17.4 -1.7
2017-May-20 02:00S 74°00' W 179°48'0 0.0 250 / 6984.2 -17.5 -1.7
2017-May-20 01:00S 74°00' W 179°48'8 7.8 260 / 8984.8 -17.3 -1.8
2017-May-20 00:00S 74°06' W 179°30'2 1.6 260 / 9985.4 -16.8 -1.8
2017-May-19 23:00S 74°06' W 179°24'0 0.0 280 / 7985.6 -16.5 -1.7
2017-May-19 22:00S 74°06' W 179°24'6 6.0 240 / 4986.1 -16.3 -1.7
2017-May-19 21:00S 74°12' W 179°24'2 1.6 240 / 7987.0 -16.5 -1.6
2017-May-19 20:00S 74°12' W 179°18'6 6.2 240 / 8987.6 -16.7 -1.7
2017-May-19 19:00S 74°18' W 179°12'6 6.2 250 / 11988.3 -16.8 -1.7
2017-May-19 18:00S 74°24' W 179°06'5 4.8 270 / 10988.8 -17.0 -1.7
2017-May-19 17:00S 74°24' W 178°48'6 6.2 260 / 8989.1 -16.9 -1.8
2017-May-19 16:00S 74°30' W 178°42'8 7.7 220 / 6989.2 -16.2 -1.8
2017-May-19 15:00S 74°36' W 179°00'8 7.7 220 / 8989.9 -16.0 -1.8
2017-May-19 14:00S 74°42' W 179°18'7 6.8 200 / 10990.5 -15.8 -1.8
2017-May-19 13:00S 74°48' W 179°30'384383.8 190 / 14990.9 -15.4 -1.8
2017-May-19 12:00S 74°48' W 155°06'395395.2 190 / 16991.7 -16.0 -1.7
2017-May-19 11:00S 74°54' E 179°42'6 6.3 200 / 15992.3 -17.5 -1.7
2017-May-19 10:00S 74°54' E 179°18'6 6.3 210 / 14992.5 -17.6 -1.6
2017-May-19 09:00S 74°54' E 178°54'6 6.3 220 / 16992.5 -16.7 -1.6
2017-May-19 08:00S 74°54' E 178°30'5 4.7 230 / 17992.8 -16.4 -1.7
2017-May-19 07:00S 74°54' E 178°12'6 6.3 240 / 14993.2 -16.9 -1.7
2017-May-19 06:00S 74°54' E 177°48'6 6.3 230 / 11993.6 -16.8 -1.7
2017-May-19 05:00S 74°54' E 177°24'6 6.3 220 / 14993.9 -16.2 -1.7
2017-May-19 04:00S 74°54' E 177°00'8 7.8 210 / 17994.0 -15.4 -1.8
2017-May-19 03:00S 74°54' E 176°30'6 6.3 220 / 21994.2 -14.7 -1.8
2017-May-19 02:00S 74°54' E 176°06'2 1.6 220 / 16994.9 -13.6 -1.8
2017-May-19 01:00S 74°54' E 176°00'2 1.6 190 / 17995.3 -12.9 -1.7
2017-May-19 00:00S 74°54' E 175°54'0 0.0 210 / 14995.6 -12.4 -1.7
2017-May-18 23:00S 74°54' E 175°54'0 0.0 210 / 15995.8 -12.4 -1.7
2017-May-18 22:00S 74°54' E 175°54'6 6.0 220 / 18996.2 -12.7 -1.7
2017-May-18 21:00S 75°00' E 175°54'6 6.0 220 / 16996.3 -13.4 -1.8
2017-May-18 20:00S 75°06' E 175°54'6 6.0 210 / 19996.0 -12.4 -1.8
2017-May-18 19:00S 75°12' E 175°54'6 6.0 190 / 21995.5 -12.3 -1.6
2017-May-18 18:00S 75°18' E 175°54'6 6.0 200 / 23995.1 -12.4 -1.7
2017-May-18 17:00S 75°24' E 175°54'6 6.0 210 / 23994.9 -11.8 -1.7
2017-May-18 16:00S 75°30' E 175°54'6 6.0 200 / 21994.7 -12.0 -1.7
2017-May-18 15:00S 75°36' E 175°54'6 6.2 190 / 20994.3 -12.2 -1.8
2017-May-18 14:00S 75°42' E 175°48'1212.1 190 / 23994.0 -12.8 -1.8
2017-May-18 13:00S 75°54' E 175°54'6 6.2 190 / 23993.5 -12.9 -1.8
2017-May-18 12:00S 76°00' E 176°00'6 6.0 200 / 22992.8 -12.8 -1.8
2017-May-18 11:00S 76°06' E 176°00'6 6.0 200 / 26992.2 -12.9 -1.8
2017-May-18 10:00S 76°12' E 176°00'6 6.0 190 / 29991.8 -13.0 -1.8
2017-May-18 09:00S 76°18' E 176°00'7 6.6 200 / 30991.5 -12.8 -1.8
2017-May-18 08:00S 76°24' E 175°48'   200 / 30991.2 -13.1 -1.8

Dump ship's entire track history